sensor_id;sensor_type;location;lat;lon;timestamp;pressure;altitude;pressure_sealevel;temperature;humidity
51876;BME280;34054;52.100;5.116;2022-11-09T00:00:09;100221.72;;;14.07;81.21
51876;BME280;34054;52.100;5.116;2022-11-09T00:00:42;100218.88;;;14.12;81.07
51876;BME280;34054;52.100;5.116;2022-11-09T00:01:14;100220.22;;;14.14;80.84
51876;BME280;34054;52.100;5.116;2022-11-09T00:01:46;100223.81;;;14.10;80.93
51876;BME280;34054;52.100;5.116;2022-11-09T00:02:19;100221.09;;;14.10;80.97
51876;BME280;34054;52.100;5.116;2022-11-09T00:02:53;100219.88;;;14.02;81.11
51876;BME280;34054;52.100;5.116;2022-11-09T00:03:25;100218.47;;;14.05;81.33
51876;BME280;34054;52.100;5.116;2022-11-09T00:03:59;100214.00;;;14.09;81.19
51876;BME280;34054;52.100;5.116;2022-11-09T00:04:31;100222.38;;;13.98;81.17
51876;BME280;34054;52.100;5.116;2022-11-09T00:05:04;100216.81;;;14.04;81.39
51876;BME280;34054;52.100;5.116;2022-11-09T00:05:37;100211.00;;;14.10;81.18
51876;BME280;34054;52.100;5.116;2022-11-09T00:06:09;100213.94;;;14.14;80.86
51876;BME280;34054;52.100;5.116;2022-11-09T00:06:42;100220.34;;;14.04;80.87
51876;BME280;34054;52.100;5.116;2022-11-09T00:07:13;100215.19;;;14.03;81.35
51876;BME280;34054;52.100;5.116;2022-11-09T00:07:45;100218.38;;;14.10;81.16
51876;BME280;34054;52.100;5.116;2022-11-09T00:08:18;100206.72;;;14.04;80.72
51876;BME280;34054;52.100;5.116;2022-11-09T00:08:49;100210.03;;;14.01;81.08
51876;BME280;34054;52.100;5.116;2022-11-09T00:09:21;100213.53;;;14.07;81.00
51876;BME280;34054;52.100;5.116;2022-11-09T00:09:54;100216.75;;;14.09;80.90
51876;BME280;34054;52.100;5.116;2022-11-09T00:10:25;100224.66;;;14.10;80.83
51876;BME280;34054;52.100;5.116;2022-11-09T00:11:01;100215.28;;;14.17;80.63
51876;BME280;34054;52.100;5.116;2022-11-09T00:11:35;100224.25;;;14.17;80.53
51876;BME280;34054;52.100;5.116;2022-11-09T00:12:07;100217.47;;;14.14;80.43
51876;BME280;34054;52.100;5.116;2022-11-09T00:12:39;100218.81;;;14.17;80.38
51876;BME280;34054;52.100;5.116;2022-11-09T00:13:12;100213.94;;;14.14;80.35
51876;BME280;34054;52.100;5.116;2022-11-09T00:13:45;100221.72;;;14.07;80.50
51876;BME280;34054;52.100;5.116;2022-11-09T00:14:17;100216.75;;;14.09;80.70
51876;BME280;34054;52.100;5.116;2022-11-09T00:14:49;100230.78;;;14.21;80.41
51876;BME280;34054;52.100;5.116;2022-11-09T00:15:21;100230.91;;;14.11;80.38
51876;BME280;34054;52.100;5.116;2022-11-09T00:15:57;100216.69;;;14.14;80.52
51876;BME280;34054;52.100;5.116;2022-11-09T00:16:30;100222.16;;;14.14;80.41
51876;BME280;34054;52.100;5.116;2022-11-09T00:17:01;100220.34;;;14.04;80.75
51876;BME280;34054;52.100;5.116;2022-11-09T00:17:34;100220.75;;;13.97;80.92
51876;BME280;34054;52.100;5.116;2022-11-09T00:18:05;100231.06;;;14.01;80.89
51876;BME280;34054;52.100;5.116;2022-11-09T00:18:37;100229.59;;;14.08;80.76
51876;BME280;34054;52.100;5.116;2022-11-09T00:19:10;100234.75;;;14.10;80.64
51876;BME280;34054;52.100;5.116;2022-11-09T00:19:43;100232.09;;;14.05;80.61
51876;BME280;34054;52.100;5.116;2022-11-09T00:20:15;100234.84;;;14.05;80.72
51876;BME280;34054;52.100;5.116;2022-11-09T00:20:47;100231.28;;;14.04;80.69
51876;BME280;34054;52.100;5.116;2022-11-09T00:21:20;100226.28;;;14.11;80.67
51876;BME280;34054;52.100;5.116;2022-11-09T00:21:53;100231.28;;;14.04;80.57
51876;BME280;34054;52.100;5.116;2022-11-09T00:22:25;100230.03;;;13.96;80.54
51876;BME280;34054;52.100;5.116;2022-11-09T00:22:57;100229.66;;;14.03;80.69
51876;BME280;34054;52.100;5.116;2022-11-09T00:23:30;100227.44;;;14.05;80.66
51876;BME280;34054;52.100;5.116;2022-11-09T00:24:01;100235.41;;;14.02;80.67
51876;BME280;34054;52.100;5.116;2022-11-09T00:24:34;100218.38;;;13.91;80.70
51876;BME280;34054;52.100;5.116;2022-11-09T00:25:06;100226.44;;;14.01;80.70
51876;BME280;34054;52.100;5.116;2022-11-09T00:25:38;100231.66;;;13.97;80.49
51876;BME280;34054;52.100;5.116;2022-11-09T00:26:12;100239.56;;;13.99;80.72
51876;BME280;34054;52.100;5.116;2022-11-09T00:26:45;100235.63;;;14.05;80.61
51876;BME280;34054;52.100;5.116;2022-11-09T00:27:16;100232.09;;;14.05;80.04
51876;BME280;34054;52.100;5.116;2022-11-09T00:27:49;100237.56;;;14.05;80.29
51876;BME280;34054;52.100;5.116;2022-11-09T00:28:20;100234.84;;;14.05;80.30
51876;BME280;34054;52.100;5.116;2022-11-09T00:28:53;100235.13;;;14.03;80.33
51876;BME280;34054;52.100;5.116;2022-11-09T00:29:27;100244.34;;;14.07;80.13
51876;BME280;34054;52.100;5.116;2022-11-09T00:29:58;100232.47;;;13.98;80.11
51876;BME280;34054;52.100;5.116;2022-11-09T00:30:30;100226.00;;;13.94;80.15
51876;BME280;34054;52.100;5.116;2022-11-09T00:31:04;100233.03;;;13.95;80.33
51876;BME280;34054;52.100;5.116;2022-11-09T00:31:36;100229.66;;;14.03;79.90
51876;BME280;34054;52.100;5.116;2022-11-09T00:32:08;100234.75;;;14.10;79.73
51876;BME280;34054;52.100;5.116;2022-11-09T00:32:40;100239.19;;;14.06;79.71
51876;BME280;34054;52.100;5.116;2022-11-09T00:33:15;100236.53;;;14.01;80.01
51876;BME280;34054;52.100;5.116;2022-11-09T00:33:47;100234.31;;;14.03;79.80
51876;BME280;34054;52.100;5.116;2022-11-09T00:34:20;100247.16;;;14.02;79.72
51876;BME280;34054;52.100;5.116;2022-11-09T00:34:52;100234.66;;;13.96;79.96
51876;BME280;34054;52.100;5.116;2022-11-09T00:35:24;100239.25;;;14.01;79.90
51876;BME280;34054;52.100;5.116;2022-11-09T00:35:57;100221.25;;;13.80;79.91
51876;BME280;34054;52.100;5.116;2022-11-09T00:36:29;100228.84;;;13.84;80.12
51876;BME280;34054;52.100;5.116;2022-11-09T00:37:01;100227.59;;;13.95;79.96
51876;BME280;34054;52.100;5.116;2022-11-09T00:37:33;100235.94;;;14.04;79.79
51876;BME280;34054;52.100;5.116;2022-11-09T00:38:08;100220.00;;;13.92;79.78
51876;BME280;34054;52.100;5.116;2022-11-09T00:38:40;100229.81;;;13.93;79.95
51876;BME280;34054;52.100;5.116;2022-11-09T00:39:13;100224.34;;;13.93;79.87
51876;BME280;34054;52.100;5.116;2022-11-09T00:39:44;100233.34;;;13.93;79.83
51876;BME280;34054;52.100;5.116;2022-11-09T00:40:16;100238.81;;;13.93;79.64
51876;BME280;34054;52.100;5.116;2022-11-09T00:40:48;100233.88;;;13.95;79.75
51876;BME280;34054;52.100;5.116;2022-11-09T00:41:21;100213.44;;;13.93;79.70
51876;BME280;34054;52.100;5.116;2022-11-09T00:41:53;100226.34;;;14.06;79.39
51876;BME280;34054;52.100;5.116;2022-11-09T00:42:25;100220.13;;;14.01;79.42
51876;BME280;34054;52.100;5.116;2022-11-09T00:42:57;100225.81;;;14.04;79.33
51876;BME280;34054;52.100;5.116;2022-11-09T00:43:29;100213.22;;;13.89;79.07
51876;BME280;34054;52.100;5.116;2022-11-09T00:44:03;100222.78;;;13.87;79.47
51876;BME280;34054;52.100;5.116;2022-11-09T00:44:35;100236.72;;;13.85;79.62
51876;BME280;34054;52.100;5.116;2022-11-09T00:45:07;100228.09;;;13.78;79.51
51876;BME280;34054;52.100;5.116;2022-11-09T00:45:40;100224.28;;;13.79;79.65
51876;BME280;34054;52.100;5.116;2022-11-09T00:46:11;100214.59;;;13.68;79.86
51876;BME280;34054;52.100;5.116;2022-11-09T00:46:43;100222.34;;;13.79;79.72
51876;BME280;34054;52.100;5.116;2022-11-09T00:47:16;100222.06;;;13.81;79.52
51876;BME280;34054;52.100;5.116;2022-11-09T00:47:47;100227.00;;;13.79;79.54
51876;BME280;34054;52.100;5.116;2022-11-09T00:48:20;100214.28;;;13.69;79.40
51876;BME280;34054;52.100;5.116;2022-11-09T00:48:53;100219.38;;;13.76;79.43
51876;BME280;34054;52.100;5.116;2022-11-09T00:49:25;100222.94;;;13.76;79.61
51876;BME280;34054;52.100;5.116;2022-11-09T00:49:57;100213.34;;;13.79;79.38
51876;BME280;34054;52.100;5.116;2022-11-09T00:50:30;100220.31;;;13.90;79.19
51876;BME280;34054;52.100;5.116;2022-11-09T00:51:02;100211.59;;;13.88;79.01
51876;BME280;34054;52.100;5.116;2022-11-09T00:51:34;100210.75;;;13.88;78.86
51876;BME280;34054;52.100;5.116;2022-11-09T00:52:06;100212.47;;;13.84;78.88
51876;BME280;34054;52.100;5.116;2022-11-09T00:52:38;100219.78;;;13.88;78.78
51876;BME280;34054;52.100;5.116;2022-11-09T00:53:10;100219.19;;;13.91;78.74
51876;BME280;34054;52.100;5.116;2022-11-09T00:53:42;100224.34;;;13.93;78.68
51876;BME280;34054;52.100;5.116;2022-11-09T00:54:14;100224.72;;;13.86;78.53
51876;BME280;34054;52.100;5.116;2022-11-09T00:54:47;100224.28;;;13.79;78.62
51876;BME280;34054;52.100;5.116;2022-11-09T00:55:20;100225.16;;;13.74;79.11
51876;BME280;34054;52.100;5.116;2022-11-09T00:55:55;100222.63;;;13.78;78.80
51876;BME280;34054;52.100;5.116;2022-11-09T00:56:28;100219.69;;;13.74;79.21
51876;BME280;34054;52.100;5.116;2022-11-09T00:57:00;100222.06;;;13.81;78.90
51876;BME280;34054;52.100;5.116;2022-11-09T00:57:31;100213.72;;;13.72;79.00
51876;BME280;34054;52.100;5.116;2022-11-09T00:58:04;100218.28;;;13.77;79.05
51876;BME280;34054;52.100;5.116;2022-11-09T00:58:36;100216.75;;;13.71;78.94
51876;BME280;34054;52.100;5.116;2022-11-09T00:59:10;100227.88;;;13.74;78.96
51876;BME280;34054;52.100;5.116;2022-11-09T00:59:43;100213.72;;;13.72;79.10
51876;BME280;34054;52.100;5.116;2022-11-09T01:00:15;100214.53;;;13.73;78.91
51876;BME280;34054;52.100;5.116;2022-11-09T01:00:47;100225.72;;;13.71;78.86
51876;BME280;34054;52.100;5.116;2022-11-09T01:01:20;100220.91;;;13.63;78.96
51876;BME280;34054;52.100;5.116;2022-11-09T01:01:52;100224.16;;;13.65;79.03
51876;BME280;34054;52.100;5.116;2022-11-09T01:02:23;100225.50;;;13.68;79.16
51876;BME280;34054;52.100;5.116;2022-11-09T01:02:56;100216.13;;;13.74;79.06
51876;BME280;34054;52.100;5.116;2022-11-09T01:03:27;100220.50;;;13.75;78.93
51876;BME280;34054;52.100;5.116;2022-11-09T01:03:59;100216.66;;;13.76;78.71
51876;BME280;34054;52.100;5.116;2022-11-09T01:04:31;100218.81;;;13.79;78.57
51876;BME280;34054;52.100;5.116;2022-11-09T01:05:04;100217.50;;;13.76;78.39
51876;BME280;34054;52.100;5.116;2022-11-09T01:05:36;100225.38;;;13.78;78.67
51876;BME280;34054;52.100;5.116;2022-11-09T01:06:13;100225.44;;;13.73;78.45
51876;BME280;34054;52.100;5.116;2022-11-09T01:06:46;100226.16;;;13.59;78.60
51876;BME280;34054;52.100;5.116;2022-11-09T01:07:19;100224.03;;;13.56;78.98
51876;BME280;34054;52.100;5.116;2022-11-09T01:07:50;100229.41;;;13.61;78.95
51876;BME280;34054;52.100;5.116;2022-11-09T01:08:22;100222.91;;;13.57;79.00
51876;BME280;34054;52.100;5.116;2022-11-09T01:08:55;100225.69;;;13.52;78.99
51876;BME280;34054;52.100;5.116;2022-11-09T01:09:27;100221.63;;;13.49;79.16
51876;BME280;34054;52.100;5.116;2022-11-09T01:09:59;100224.91;;;13.52;79.14
51876;BME280;34054;52.100;5.116;2022-11-09T01:10:32;100213.09;;;13.56;78.90
51876;BME280;34054;52.100;5.116;2022-11-09T01:11:05;100217.63;;;13.66;78.66
51876;BME280;34054;52.100;5.116;2022-11-09T01:11:38;100211.41;;;13.60;78.58
51876;BME280;34054;52.100;5.116;2022-11-09T01:12:11;100213.56;;;13.63;78.55
51876;BME280;34054;52.100;5.116;2022-11-09T01:12:42;100210.38;;;13.56;78.78
51876;BME280;34054;52.100;5.116;2022-11-09T01:13:16;100217.44;;;13.57;78.69
51876;BME280;34054;52.100;5.116;2022-11-09T01:13:49;100210.09;;;13.58;78.68
51876;BME280;34054;52.100;5.116;2022-11-09T01:14:23;100210.09;;;13.58;78.52
51876;BME280;34054;52.100;5.116;2022-11-09T01:14:54;100208.44;;;13.57;78.50
51876;BME280;34054;52.100;5.116;2022-11-09T01:15:27;100217.22;;;13.54;78.78
51876;BME280;34054;52.100;5.116;2022-11-09T01:15:58;100209.31;;;13.52;78.65
51876;BME280;34054;52.100;5.116;2022-11-09T01:16:30;100222.16;;;13.52;78.65
51876;BME280;34054;52.100;5.116;2022-11-09T01:17:03;100212.69;;;13.44;78.94
51876;BME280;34054;52.100;5.116;2022-11-09T01:17:34;100210.28;;;13.42;78.99
51876;BME280;34054;52.100;5.116;2022-11-09T01:18:06;100209.69;;;13.45;78.83
51876;BME280;34054;52.100;5.116;2022-11-09T01:18:40;100212.63;;;13.49;78.56
51876;BME280;34054;52.100;5.116;2022-11-09T01:19:13;100219.44;;;13.52;78.77
51876;BME280;34054;52.100;5.116;2022-11-09T01:19:44;100218.16;;;13.44;78.62
51876;BME280;34054;52.100;5.116;2022-11-09T01:20:17;100216.97;;;13.50;78.84
51876;BME280;34054;52.100;5.116;2022-11-09T01:20:49;100222.75;;;13.48;78.61
51876;BME280;34054;52.100;5.116;2022-11-09T01:21:22;100201.00;;;13.38;78.60
51876;BME280;34054;52.100;5.116;2022-11-09T01:21:54;100223.31;;;13.45;78.81
51876;BME280;34054;52.100;5.116;2022-11-09T01:22:26;100217.94;;;13.40;78.88
51876;BME280;34054;52.100;5.116;2022-11-09T01:22:57;100220.09;;;13.38;78.88
51876;BME280;34054;52.100;5.116;2022-11-09T01:23:30;100225.81;;;13.42;78.85
51876;BME280;34054;52.100;5.116;2022-11-09T01:24:03;100223.69;;;13.39;78.83
51876;BME280;34054;52.100;5.116;2022-11-09T01:24:36;100221.41;;;13.46;78.63
51876;BME280;34054;52.100;5.116;2022-11-09T01:25:08;100228.78;;;13.45;78.53
51876;BME280;34054;52.100;5.116;2022-11-09T01:25:40;100219.19;;;13.48;78.35
51876;BME280;34054;52.100;5.116;2022-11-09T01:26:13;100221.63;;;13.49;78.26
51876;BME280;34054;52.100;5.116;2022-11-09T01:26:47;100217.06;;;13.45;78.26
51876;BME280;34054;52.100;5.116;2022-11-09T01:27:18;100222.00;;;13.43;78.36
51876;BME280;34054;52.100;5.116;2022-11-09T01:27:50;100215.44;;;13.44;78.50
51876;BME280;34054;52.100;5.116;2022-11-09T01:28:22;100213.81;;;13.43;78.31
51876;BME280;34054;52.100;5.116;2022-11-09T01:28:54;100232.03;;;13.47;78.15
51876;BME280;34054;52.100;5.116;2022-11-09T01:29:28;100220.81;;;13.49;78.04
51876;BME280;34054;52.100;5.116;2022-11-09T01:29:59;100234.22;;;13.45;78.30
51876;BME280;34054;52.100;5.116;2022-11-09T01:30:33;100231.72;;;13.49;78.10
51876;BME280;34054;52.100;5.116;2022-11-09T01:31:09;100231.44;;;13.50;77.98
51876;BME280;34054;52.100;5.116;2022-11-09T01:31:42;100230.94;;;13.48;78.03
51876;BME280;34054;52.100;5.116;2022-11-09T01:32:14;100226.13;;;13.40;78.29
51876;BME280;34054;52.100;5.116;2022-11-09T01:32:46;100224.38;;;13.49;78.22
51876;BME280;34054;52.100;5.116;2022-11-09T01:33:17;100229.38;;;13.42;78.06
51876;BME280;34054;52.100;5.116;2022-11-09T01:33:50;100223.31;;;13.45;78.21
51876;BME280;34054;52.100;5.116;2022-11-09T01:34:22;100223.28;;;13.50;77.96
51876;BME280;34054;52.100;5.116;2022-11-09T01:34:54;100220.09;;;13.43;78.07
51876;BME280;34054;52.100;5.116;2022-11-09T01:35:26;100226.41;;;13.39;78.24
51876;BME280;34054;52.100;5.116;2022-11-09T01:36:01;100223.41;;;13.35;78.47
51876;BME280;34054;52.100;5.116;2022-11-09T01:36:35;100224.19;;;13.41;78.50
51876;BME280;34054;52.100;5.116;2022-11-09T01:37:07;100225.81;;;13.42;78.43
51876;BME280;34054;52.100;5.116;2022-11-09T01:37:39;100229.63;;;13.41;78.41
51876;BME280;34054;52.100;5.116;2022-11-09T01:38:11;100212.47;;;13.40;78.53
51876;BME280;34054;52.100;5.116;2022-11-09T01:38:42;100226.13;;;13.40;78.28
51876;BME280;34054;52.100;5.116;2022-11-09T01:39:15;100223.84;;;13.47;78.22
51876;BME280;34054;52.100;5.116;2022-11-09T01:39:47;100229.16;;;13.39;78.31
51876;BME280;34054;52.100;5.116;2022-11-09T01:40:18;100212.19;;;13.42;78.30
51876;BME280;34054;52.100;5.116;2022-11-09T01:40:51;100228.53;;;13.42;78.19
51876;BME280;34054;52.100;5.116;2022-11-09T01:41:24;100222.81;;;13.43;78.20
51876;BME280;34054;52.100;5.116;2022-11-09T01:41:57;100225.00;;;13.41;78.21
51876;BME280;34054;52.100;5.116;2022-11-09T01:42:30;100227.22;;;13.39;78.20
51876;BME280;34054;52.100;5.116;2022-11-09T01:43:13;100228.28;;;13.43;78.23
51876;BME280;34054;52.100;5.116;2022-11-09T01:44:06;100226.66;;;13.42;78.02
51876;BME280;34054;52.100;5.116;2022-11-09T01:44:44;100233.94;;;13.47;77.94
51876;BME280;34054;52.100;5.116;2022-11-09T01:45:26;100234.03;;;13.37;78.22
51876;BME280;34054;52.100;5.116;2022-11-09T01:46:02;100227.06;;;13.25;78.61
51876;BME280;34054;52.100;5.116;2022-11-09T01:46:42;100249.94;;;13.29;78.69
51876;BME280;34054;52.100;5.116;2022-11-09T01:47:22;100234.69;;;13.28;78.56
51876;BME280;34054;52.100;5.116;2022-11-09T01:48:00;100235.13;;;13.35;78.41
51876;BME280;34054;52.100;5.116;2022-11-09T01:48:40;100245.28;;;13.30;78.56
51876;BME280;34054;52.100;5.116;2022-11-09T01:49:25;100241.47;;;13.31;78.55
51876;BME280;34054;52.100;5.116;2022-11-09T01:50:09;100224.09;;;13.22;78.57
51876;BME280;34054;52.100;5.116;2022-11-09T01:50:47;100246.56;;;13.38;78.27
51876;BME280;34054;52.100;5.116;2022-11-09T01:51:25;100222.22;;;13.22;78.30
51876;BME280;34054;52.100;5.116;2022-11-09T01:52:05;100238.44;;;13.32;78.60
51876;BME280;34054;52.100;5.116;2022-11-09T01:52:42;100234.81;;;13.42;78.30
51876;BME280;34054;52.100;5.116;2022-11-09T01:53:19;100238.34;;;13.43;78.23
51876;BME280;34054;52.100;5.116;2022-11-09T01:53:59;100233.56;;;13.54;77.94
51876;BME280;34054;52.100;5.116;2022-11-09T01:54:38;100230.84;;;13.54;77.70
51876;BME280;34054;52.100;5.116;2022-11-09T01:55:15;100230.63;;;13.50;77.82
51876;BME280;34054;52.100;5.116;2022-11-09T01:55:52;100233.66;;;13.48;77.62
51876;BME280;34054;52.100;5.116;2022-11-09T01:56:27;100239.63;;;13.50;77.76
51876;BME280;34054;52.100;5.116;2022-11-09T01:57:04;100237.47;;;13.47;77.57
51876;BME280;34054;52.100;5.116;2022-11-09T01:57:44;100233.00;;;13.57;77.66
51876;BME280;34054;52.100;5.116;2022-11-09T01:58:22;100241.94;;;13.62;77.40
51876;BME280;34054;52.100;5.116;2022-11-09T01:59:03;100234.63;;;13.58;77.35
51876;BME280;34054;52.100;5.116;2022-11-09T01:59:42;100233.00;;;13.57;77.47
51876;BME280;34054;52.100;5.116;2022-11-09T02:00:21;100229.97;;;13.58;77.56
51876;BME280;34054;52.100;5.116;2022-11-09T02:00:55;100237.19;;;13.49;77.57
51876;BME280;34054;52.100;5.116;2022-11-09T02:01:30;100228.72;;;13.50;77.58
51876;BME280;34054;52.100;5.116;2022-11-09T02:02:04;100234.19;;;13.50;77.69
51876;BME280;34054;52.100;5.116;2022-11-09T02:02:38;100231.16;;;13.52;77.89
51876;BME280;34054;52.100;5.116;2022-11-09T02:03:17;100215.19;;;13.40;77.66
51876;BME280;34054;52.100;5.116;2022-11-09T02:03:56;100217.38;;;13.38;77.69
51876;BME280;34054;52.100;5.116;2022-11-09T02:04:39;100227.31;;;13.53;77.75
51876;BME280;34054;52.100;5.116;2022-11-09T02:05:22;100219.78;;;13.45;77.58
51876;BME280;34054;52.100;5.116;2022-11-09T02:05:57;100216.00;;;13.41;77.90
51876;BME280;34054;52.100;5.116;2022-11-09T02:06:32;100219.31;;;13.38;78.09
51876;BME280;34054;52.100;5.116;2022-11-09T02:07:05;100224.72;;;13.43;78.30
51876;BME280;34054;52.100;5.116;2022-11-09T02:07:39;100223.91;;;13.42;78.30
51876;BME280;34054;52.100;5.116;2022-11-09T02:08:16;100228.53;;;13.42;78.33
51876;BME280;34054;52.100;5.116;2022-11-09T02:08:50;100207.56;;;13.42;78.20
51876;BME280;34054;52.100;5.116;2022-11-09T02:09:29;100221.41;;;13.46;78.12
51876;BME280;34054;52.100;5.116;2022-11-09T02:10:09;100216.09;;;13.55;77.96
51876;BME280;34054;52.100;5.116;2022-11-09T02:10:51;100212.59;;;13.54;77.71
51876;BME280;34054;52.100;5.116;2022-11-09T02:11:33;100214.25;;;13.50;77.79
51876;BME280;34054;52.100;5.116;2022-11-09T02:12:08;100200.75;;;13.40;77.82
51876;BME280;34054;52.100;5.116;2022-11-09T02:12:40;100215.09;;;13.50;78.08
51876;BME280;34054;52.100;5.116;2022-11-09T02:13:15;100218.63;;;13.51;78.04
51876;BME280;34054;52.100;5.116;2022-11-09T02:13:53;100193.59;;;13.44;78.23
51876;BME280;34054;52.100;5.116;2022-11-09T02:14:28;100216.78;;;13.65;77.73
51876;BME280;34054;52.100;5.116;2022-11-09T02:15:08;100212.69;;;13.68;77.46
51876;BME280;34054;52.100;5.116;2022-11-09T02:15:41;100217.25;;;13.73;77.34
51876;BME280;34054;52.100;5.116;2022-11-09T02:16:13;100219.03;;;13.82;77.15
51876;BME280;34054;52.100;5.116;2022-11-09T02:16:47;100213.06;;;13.80;76.97
51876;BME280;34054;52.100;5.116;2022-11-09T02:17:19;100227.78;;;13.79;76.86
51876;BME280;34054;52.100;5.116;2022-11-09T02:17:53;100226.59;;;13.66;77.26
51876;BME280;34054;52.100;5.116;2022-11-09T02:18:27;100225.72;;;13.71;77.31
51876;BME280;34054;52.100;5.116;2022-11-09T02:19:01;100221.09;;;13.72;77.34
51876;BME280;34054;52.100;5.116;2022-11-09T02:19:32;100224.53;;;13.58;77.53
51876;BME280;34054;52.100;5.116;2022-11-09T02:20:08;100234.56;;;13.63;77.82
51876;BME280;34054;52.100;5.116;2022-11-09T02:20:45;100230.50;;;13.60;77.75
51876;BME280;34054;52.100;5.116;2022-11-09T02:21:19;100229.22;;;13.53;77.97
51876;BME280;34054;52.100;5.116;2022-11-09T02:21:52;100236.94;;;13.45;78.30
51876;BME280;34054;52.100;5.116;2022-11-09T02:22:24;100216.75;;;13.46;78.42
51876;BME280;34054;52.100;5.116;2022-11-09T02:22:56;100229.47;;;13.56;78.24
51876;BME280;34054;52.100;5.116;2022-11-09T02:23:28;100224.28;;;13.55;78.12
51876;BME280;34054;52.100;5.116;2022-11-09T02:24:00;100222.44;;;13.50;78.39
51876;BME280;34054;52.100;5.116;2022-11-09T02:24:32;100225.56;;;13.38;78.46
51876;BME280;34054;52.100;5.116;2022-11-09T02:25:05;100217.16;;;13.34;78.77
51876;BME280;34054;52.100;5.116;2022-11-09T02:25:38;100233.50;;;13.34;78.97
51876;BME280;34054;52.100;5.116;2022-11-09T02:26:14;100226.25;;;13.25;79.44
51876;BME280;34054;52.100;5.116;2022-11-09T02:26:52;100229.97;;;13.34;79.41
51876;BME280;34054;52.100;5.116;2022-11-09T02:27:25;100225.03;;;13.36;79.46
51876;BME280;34054;52.100;5.116;2022-11-09T02:27:57;100233.47;;;13.40;79.19
51876;BME280;34054;52.100;5.116;2022-11-09T02:28:29;100222.06;;;13.32;79.24
51876;BME280;34054;52.100;5.116;2022-11-09T02:29:06;100232.72;;;13.34;79.34
51876;BME280;34054;52.100;5.116;2022-11-09T02:29:41;100230.63;;;13.26;79.69
51876;BME280;34054;52.100;5.116;2022-11-09T02:30:18;100232.72;;;13.34;79.72
51876;BME280;34054;52.100;5.116;2022-11-09T02:30:54;100225.31;;;13.34;79.71
51876;BME280;34054;52.100;5.116;2022-11-09T02:31:31;100213.88;;;13.32;79.66
51876;BME280;34054;52.100;5.116;2022-11-09T02:32:08;100235.94;;;13.36;79.72
51876;BME280;34054;52.100;5.116;2022-11-09T02:32:45;100233.50;;;13.34;79.76
51876;BME280;34054;52.100;5.116;2022-11-09T02:33:17;100227.47;;;13.38;79.90
51876;BME280;34054;52.100;5.116;2022-11-09T02:33:52;100238.59;;;13.46;79.60
51876;BME280;34054;52.100;5.116;2022-11-09T02:34:26;100239.19;;;13.43;79.51
51876;BME280;34054;52.100;5.116;2022-11-09T02:34:57;100251.03;;;13.28;79.93
51876;BME280;34054;52.100;5.116;2022-11-09T02:35:30;100237.44;;;13.23;80.32
51876;BME280;34054;52.100;5.116;2022-11-09T02:36:04;100247.25;;;13.24;80.33
51876;BME280;34054;52.100;5.116;2022-11-09T02:36:36;100250.03;;;13.19;80.63
51876;BME280;34054;52.100;5.116;2022-11-09T02:37:07;100238.59;;;13.17;80.75
51876;BME280;34054;52.100;5.116;2022-11-09T02:37:45;100247.25;;;13.24;80.67
51876;BME280;34054;52.100;5.116;2022-11-09T02:38:19;100242.38;;;13.21;80.78
51876;BME280;34054;52.100;5.116;2022-11-09T02:38:52;100242.00;;;13.33;80.96
51876;BME280;34054;52.100;5.116;2022-11-09T02:39:27;100245.75;;;13.42;80.22
51876;BME280;34054;52.100;5.116;2022-11-09T02:40:02;100222.59;;;13.34;79.86
51876;BME280;34054;52.100;5.116;2022-11-09T02:40:40;100247.22;;;13.54;79.88
51876;BME280;34054;52.100;5.116;2022-11-09T02:41:16;100242.06;;;13.52;79.42
51876;BME280;34054;52.100;5.116;2022-11-09T02:41:51;100249.19;;;13.48;79.62
51876;BME280;34054;52.100;5.116;2022-11-09T02:42:26;100253.09;;;13.42;79.88
51876;BME280;34054;52.100;5.116;2022-11-09T02:42:59;100240.75;;;13.20;80.35
51876;BME280;34054;52.100;5.116;2022-11-09T02:43:32;100246.22;;;13.20;80.60
51876;BME280;34054;52.100;5.116;2022-11-09T02:44:06;100239.38;;;13.23;80.72
51876;BME280;34054;52.100;5.116;2022-11-09T02:44:40;100251.50;;;13.35;80.49
51876;BME280;34054;52.100;5.116;2022-11-09T02:45:15;100256.13;;;13.40;80.43
51876;BME280;34054;52.100;5.116;2022-11-09T02:45:48;100248.00;;;13.30;80.91
51876;BME280;34054;52.100;5.116;2022-11-09T02:46:22;100239.06;;;13.24;81.08
51876;BME280;34054;52.100;5.116;2022-11-09T02:46:55;100248.78;;;13.35;80.86
51876;BME280;34054;52.100;5.116;2022-11-09T02:47:27;100247.94;;;13.35;80.91
51876;BME280;34054;52.100;5.116;2022-11-09T02:47:59;100248.25;;;13.33;80.97
51876;BME280;34054;52.100;5.116;2022-11-09T02:48:30;100247.94;;;13.35;80.85
51876;BME280;34054;52.100;5.116;2022-11-09T02:49:03;100243.13;;;13.27;81.14
51876;BME280;34054;52.100;5.116;2022-11-09T02:49:35;100252.81;;;13.14;81.56
51876;BME280;34054;52.100;5.116;2022-11-09T02:50:08;100248.66;;;13.22;81.83
51876;BME280;34054;52.100;5.116;2022-11-09T02:50:42;100235.84;;;13.22;81.59
51876;BME280;34054;52.100;5.116;2022-11-09T02:51:14;100198.22;;;12.95;81.50
51876;BME280;34054;52.100;5.116;2022-11-09T02:51:45;100236.66;;;13.23;81.58
51876;BME280;34054;52.100;5.116;2022-11-09T02:52:18;100243.97;;;13.27;81.64
51876;BME280;34054;52.100;5.116;2022-11-09T02:52:49;100236.94;;;13.21;81.79
51876;BME280;34054;52.100;5.116;2022-11-09T02:53:21;100226.13;;;13.11;82.07
51876;BME280;34054;52.100;5.116;2022-11-09T02:53:54;100227.69;;;13.17;82.18
51876;BME280;34054;52.100;5.116;2022-11-09T02:54:26;100247.09;;;13.15;82.34
51876;BME280;34054;52.100;5.116;2022-11-09T02:54:58;100239.78;;;13.11;82.62
51876;BME280;34054;52.100;5.116;2022-11-09T02:55:30;100245.78;;;13.08;82.92
51876;BME280;34054;52.100;5.116;2022-11-09T02:56:02;100238.19;;;13.04;83.13